createdAt,value
2023-01-17T00:02:09.073Z,93828.50
2023-01-17T00:04:54.637Z,93831.38
2023-01-17T00:07:42.326Z,93828.25
2023-01-17T00:10:14.065Z,93828.25
2023-01-17T00:12:48.326Z,93823.34
2023-01-17T00:15:19.678Z,93831.69
2023-01-17T00:17:48.610Z,93827.25
2023-01-17T00:20:35.429Z,93837.19
2023-01-17T00:23:25.072Z,93843.47
2023-01-17T00:26:05.713Z,93840.34
2023-01-17T00:28:36.765Z,93847.19
2023-01-17T00:31:06.029Z,93837.00
2023-01-17T00:33:33.059Z,93847.19
2023-01-17T00:36:27.343Z,93837.00
2023-01-17T00:38:54.311Z,93834.91
2023-01-17T00:41:21.283Z,93836.69
2023-01-17T00:44:08.543Z,93846.13
2023-01-17T00:46:54.231Z,93831.97
2023-01-17T00:49:39.979Z,93829.78
2023-01-17T00:52:25.941Z,93845.63
2023-01-17T00:55:11.490Z,93858.97
2023-01-17T00:57:57.109Z,93859.94
2023-01-17T01:00:43.974Z,93863.13
2023-01-17T01:03:30.567Z,93871.16
2023-01-17T01:06:16.532Z,93876.00
2023-01-17T01:09:03.502Z,93869.84
2023-01-17T01:11:49.076Z,93875.47
2023-01-17T01:14:34.999Z,93884.00
2023-01-17T01:17:22.440Z,93894.53
2023-01-17T01:20:08.381Z,93901.63
2023-01-17T01:22:53.901Z,93902.22
2023-01-17T01:25:39.378Z,93894.13
2023-01-17T01:28:29.156Z,93896.63
2023-01-17T01:31:15.109Z,93891.50
2023-01-17T01:33:44.508Z,93894.72
2023-01-17T01:36:12.553Z,93889.22
2023-01-17T01:38:40.872Z,93899.47
2023-01-17T01:41:09.013Z,93891.16
2023-01-17T01:43:47.625Z,93894.59
2023-01-17T01:46:20.899Z,93894.09
2023-01-17T01:48:54.967Z,93899.09
2023-01-17T01:51:28.741Z,93903.25
2023-01-17T01:54:03.323Z,93901.97
2023-01-17T01:56:32.613Z,93904.13
2023-01-17T01:59:03.148Z,93910.84
2023-01-17T02:01:32.079Z,93914.03
2023-01-17T02:04:01.829Z,93910.38
2023-01-17T02:06:34.803Z,93907.00
2023-01-17T02:09:08.453Z,93909.63
2023-01-17T02:11:38.920Z,93900.22
2023-01-17T02:14:07.219Z,93897.38
2023-01-17T02:16:54.485Z,93894.75
2023-01-17T02:19:58.290Z,93902.09
2023-01-17T02:23:13.278Z,93902.81
2023-01-17T02:26:42.143Z,93898.38
2023-01-17T02:30:04.805Z,93893.66
2023-01-17T02:33:06.856Z,93899.97
2023-01-17T02:35:43.135Z,93898.09
2023-01-17T02:38:25.124Z,93895.78
2023-01-17T02:40:58.770Z,93890.25
2023-01-17T02:43:28.116Z,93895.50
2023-01-17T02:45:56.260Z,93896.28
2023-01-17T02:48:31.367Z,93894.72
2023-01-17T02:51:54.082Z,93887.66
2023-01-17T02:54:46.610Z,93879.06
2023-01-17T02:57:39.739Z,93881.97
2023-01-17T03:00:21.222Z,93880.63
2023-01-17T03:03:03.175Z,93884.28
2023-01-17T03:05:39.813Z,93879.78
2023-01-17T03:08:08.661Z,93888.19
2023-01-17T03:10:37.780Z,93887.94
2023-01-17T03:13:05.818Z,93889.50
2023-01-17T03:15:34.111Z,93898.69
2023-01-17T03:18:06.880Z,93911.00
2023-01-17T03:20:36.331Z,93902.28
2023-01-17T03:23:04.654Z,93904.78
2023-01-17T03:25:32.804Z,93921.41
2023-01-17T03:28:01.022Z,93921.66
2023-01-17T03:30:29.370Z,93934.28
2023-01-17T03:32:57.423Z,93932.59
2023-01-17T03:35:25.636Z,93935.53
2023-01-17T03:37:55.048Z,93922.56
2023-01-17T03:40:23.231Z,93929.22
2023-01-17T03:42:51.279Z,93918.44
2023-01-17T03:45:19.815Z,93913.38
2023-01-17T03:47:47.855Z,93900.72
2023-01-17T03:50:16.285Z,93902.69
2023-01-17T03:52:44.389Z,93900.34
2023-01-17T03:55:13.831Z,93902.75
2023-01-17T03:57:41.977Z,93893.03
2023-01-17T04:00:12.229Z,93893.31
2023-01-17T04:02:40.443Z,93894.97
2023-01-17T04:05:09.810Z,93893.97
2023-01-17T04:07:37.923Z,93893.22
2023-01-17T04:10:07.962Z,93907.47
2023-01-17T04:12:37.355Z,93899.94
2023-01-17T04:15:06.345Z,93898.63
2023-01-17T04:17:34.745Z,93900.94
2023-01-17T04:20:02.870Z,93905.41
2023-01-17T04:22:31.565Z,93904.81
2023-01-17T04:24:59.818Z,93904.72
2023-01-17T04:27:28.123Z,93899.50
2023-01-17T04:29:57.525Z,93900.25
2023-01-17T04:32:25.772Z,93902.28
2023-01-17T04:34:53.828Z,93900.88
2023-01-17T04:37:21.995Z,93905.78
2023-01-17T04:39:51.160Z,93912.50
2023-01-17T04:42:19.169Z,93920.31
2023-01-17T04:44:48.263Z,93919.44
2023-01-17T04:47:17.702Z,93923.63
2023-01-17T04:49:45.720Z,93918.25
2023-01-17T04:52:15.025Z,93918.91
2023-01-17T04:54:43.112Z,93921.75
2023-01-17T04:57:11.260Z,93921.50
2023-01-17T04:59:39.274Z,93920.31
2023-01-17T05:02:07.529Z,93924.41
2023-01-17T05:04:36.922Z,93921.97
2023-01-17T05:07:05.450Z,93930.19
2023-01-17T05:09:33.881Z,93925.72
2023-01-17T05:12:01.995Z,93922.75
2023-01-17T05:14:30.172Z,93926.47
2023-01-17T05:16:59.060Z,93918.50
2023-01-17T05:19:28.209Z,93918.00
2023-01-17T05:22:03.736Z,93911.78
2023-01-17T05:24:32.498Z,93906.13
2023-01-17T05:27:03.092Z,93910.16
2023-01-17T05:29:31.535Z,93915.53
2023-01-17T05:31:59.628Z,93922.44
2023-01-17T05:34:27.717Z,93914.63
2023-01-17T05:36:57.412Z,93907.03
2023-01-17T05:39:26.407Z,93905.22
2023-01-17T05:41:54.957Z,93902.94
2023-01-17T05:44:23.014Z,93904.09
2023-01-17T05:46:51.101Z,93894.72
2023-01-17T05:49:19.139Z,93882.56
2023-01-17T05:51:47.285Z,93883.59
2023-01-17T05:54:16.987Z,93888.81
2023-01-17T05:56:45.340Z,93885.09
2023-01-17T05:59:14.334Z,93879.28
2023-01-17T06:01:42.556Z,93895.59
2023-01-17T06:04:10.956Z,93888.25
2023-01-17T06:06:39.014Z,93876.19
2023-01-17T06:09:07.107Z,93869.41
2023-01-17T06:11:36.608Z,93870.19
2023-01-17T06:14:04.853Z,93870.59
2023-01-17T06:16:32.855Z,93863.81
2023-01-17T06:21:31.119Z,93866.47
2023-01-17T06:23:59.212Z,93859.56
2023-01-17T06:26:27.352Z,93865.88
2023-01-17T06:28:56.762Z,93850.09
2023-01-17T06:31:24.875Z,93855.53
2023-01-17T06:33:52.937Z,93849.22
2023-01-17T06:36:21.804Z,93850.88
2023-01-17T06:38:51.917Z,93853.09
2023-01-17T06:41:20.028Z,93857.34
2023-01-17T06:43:48.090Z,93853.81
2023-01-17T06:46:17.596Z,93853.69
2023-01-17T06:48:46.076Z,93858.69
2023-01-17T06:51:14.191Z,93857.66
2023-01-17T06:53:42.735Z,93866.09
2023-01-17T06:56:11.828Z,93861.91
2023-01-17T06:58:39.873Z,93860.50
2023-01-17T07:01:09.334Z,93859.47
2023-01-17T07:03:39.293Z,93853.72
2023-01-17T07:06:09.493Z,93851.88
2023-01-17T07:08:37.748Z,93847.25
2023-01-17T07:11:08.832Z,93846.78
2023-01-17T07:13:38.559Z,93843.22
2023-01-17T07:16:08.762Z,93839.91
2023-01-17T07:18:38.181Z,93838.56
2023-01-17T07:21:06.745Z,93841.88
2023-01-17T07:23:34.948Z,93839.59
2023-01-17T07:26:03.078Z,93839.44
2023-01-17T07:28:31.162Z,93833.75
2023-01-17T07:30:59.312Z,93832.00
2023-01-17T07:33:27.496Z,93829.34
2023-01-17T07:35:56.852Z,93834.81
2023-01-17T07:38:24.944Z,93826.44
2023-01-17T07:40:53.001Z,93823.47
2023-01-17T07:43:21.069Z,93819.78
2023-01-17T07:45:51.500Z,93816.19
2023-01-17T07:48:24.705Z,93819.38
2023-01-17T07:50:56.354Z,93822.63
2023-01-17T07:53:26.841Z,93824.13
2023-01-17T07:55:55.354Z,93823.09
2023-01-17T07:58:23.844Z,93827.38
2023-01-17T08:00:52.154Z,93826.59
2023-01-17T08:03:20.304Z,93822.94
2023-01-17T08:05:57.669Z,93820.75
2023-01-17T08:08:26.305Z,93818.22
2023-01-17T08:10:54.735Z,93814.59
2023-01-17T08:13:23.069Z,93816.31
2023-01-17T08:15:51.780Z,93817.50
2023-01-17T08:18:20.103Z,93822.63
2023-01-17T08:20:48.234Z,93815.38
2023-01-17T08:23:17.734Z,93818.84
2023-01-17T08:25:45.763Z,93820.19
2023-01-17T08:28:14.016Z,93819.09
2023-01-17T08:30:42.330Z,93811.50
2023-01-17T08:33:10.368Z,93817.34
2023-01-17T08:35:38.481Z,93812.69
2023-01-17T08:38:06.756Z,93807.53
2023-01-17T08:40:36.327Z,93816.63
2023-01-17T08:43:04.387Z,93810.31
2023-01-17T08:45:32.572Z,93809.19
2023-01-17T08:48:00.845Z,93810.44
2023-01-17T08:50:29.403Z,93801.63
2023-01-17T08:53:01.337Z,93801.44
2023-01-17T08:55:29.742Z,93799.69
2023-01-17T08:57:59.167Z,93801.56
2023-01-17T09:00:28.553Z,93796.97
2023-01-17T09:02:56.706Z,93795.50
2023-01-17T09:05:25.225Z,93791.97
2023-01-17T09:07:53.315Z,93797.75
2023-01-17T09:10:23.275Z,93791.03
2023-01-17T09:12:52.460Z,93795.56
2023-01-17T09:15:21.924Z,93789.47
2023-01-17T09:17:50.141Z,93786.44
2023-01-17T09:20:19.277Z,93790.78
2023-01-17T09:22:47.388Z,93786.66
2023-01-17T09:25:15.747Z,93783.59
2023-01-17T09:27:47.533Z,93781.31
2023-01-17T09:30:16.743Z,93770.66
2023-01-17T09:32:52.523Z,93775.94
2023-01-17T09:35:20.917Z,93770.91
2023-01-17T09:37:50.790Z,93763.13
2023-01-17T09:40:23.044Z,93764.69
2023-01-17T09:42:55.040Z,93769.22
2023-01-17T09:45:23.421Z,93769.97
2023-01-17T09:47:55.571Z,93770.19
2023-01-17T09:50:32.349Z,93764.72
2023-01-17T09:53:07.722Z,93769.50
2023-01-17T09:55:41.374Z,93757.72
2023-01-17T09:58:15.180Z,93756.28
2023-01-17T10:00:54.224Z,93758.09
2023-01-17T10:03:43.396Z,93760.69
2023-01-17T10:06:49.250Z,93754.75
2023-01-17T10:09:50.433Z,93752.41
2023-01-17T10:12:30.406Z,93757.75
2023-01-17T10:15:30.263Z,93754.69
2023-01-17T10:18:07.829Z,93749.47
2023-01-17T10:20:51.008Z,93748.38
2023-01-17T10:23:51.239Z,93751.44
2023-01-17T10:26:24.474Z,93741.84
2023-01-17T10:28:54.381Z,93746.81
2023-01-17T10:31:26.328Z,93740.81
2023-01-17T10:33:56.405Z,93741.31
2023-01-17T10:36:28.699Z,93729.25
2023-01-17T10:39:00.219Z,93731.13
2023-01-17T10:41:34.225Z,93737.16
2023-01-17T10:44:08.570Z,93731.41
2023-01-17T10:46:44.064Z,93725.94
2023-01-17T10:49:19.324Z,93722.03
2023-01-17T10:52:13.902Z,93724.66
2023-01-17T10:54:59.075Z,93727.00
2023-01-17T10:57:28.948Z,93723.84
2023-01-17T11:00:01.745Z,93724.09
2023-01-17T11:02:35.354Z,93722.28
2023-01-17T11:05:13.454Z,93723.84
2023-01-17T11:07:58.502Z,93724.41
2023-01-17T11:10:43.723Z,93717.84
2023-01-17T11:13:26.927Z,93714.94
2023-01-17T11:16:00.470Z,93721.72
2023-01-17T11:18:31.250Z,93710.22
2023-01-17T11:21:15.581Z,93693.44
2023-01-17T11:23:47.264Z,93691.09
2023-01-17T11:26:26.603Z,93686.66
2023-01-17T11:29:13.828Z,93676.97
2023-01-17T11:31:42.028Z,93670.94
2023-01-17T11:34:17.434Z,93675.66
2023-01-17T11:36:45.857Z,93671.19
2023-01-17T11:39:28.191Z,93675.88
2023-01-17T11:41:56.576Z,93686.09
2023-01-17T11:44:28.078Z,93677.44
2023-01-17T11:47:19.917Z,93664.13
2023-01-17T11:49:50.543Z,93661.25
2023-01-17T11:52:25.086Z,93644.19
2023-01-17T11:54:56.309Z,93637.91
2023-01-17T11:57:27.857Z,93640.59
2023-01-17T12:00:05.049Z,93634.06
2023-01-17T12:03:09.371Z,93633.06
2023-01-17T12:05:57.929Z,93624.38
2023-01-17T12:08:51.395Z,93617.00
2023-01-17T12:11:30.189Z,93598.13
2023-01-17T12:14:12.148Z,93597.84
2023-01-17T12:17:02.473Z,93600.16
2023-01-17T12:20:00.795Z,93588.59
2023-01-17T12:22:56.370Z,93583.66
2023-01-17T12:25:46.383Z,93584.44
2023-01-17T12:28:49.649Z,93584.44
2023-01-17T12:31:30.519Z,93576.31
2023-01-17T12:34:08.072Z,93578.19
2023-01-17T12:36:44.794Z,93570.59
2023-01-17T12:39:14.355Z,93571.16
2023-01-17T12:41:57.870Z,93569.56
2023-01-17T12:44:45.539Z,93555.69
2023-01-17T12:47:17.050Z,93551.22
2023-01-17T12:49:55.501Z,93545.75
2023-01-17T12:52:35.885Z,93546.06
2023-01-17T12:55:11.599Z,93539.09
2023-01-17T12:57:46.357Z,93524.97
2023-01-17T13:00:22.967Z,93526.59
2023-01-17T13:02:56.611Z,93528.16
2023-01-17T13:05:31.732Z,93523.19
2023-01-17T13:08:14.784Z,93523.13
2023-01-17T13:10:48.037Z,93522.88
2023-01-17T13:13:22.486Z,93514.75
2023-01-17T13:15:56.125Z,93515.25
2023-01-17T13:18:29.543Z,93518.69
2023-01-17T13:21:13.068Z,93521.84
2023-01-17T13:24:25.006Z,93517.91
2023-01-17T13:27:39.367Z,93511.38
2023-01-17T13:30:44.104Z,93511.38
2023-01-17T13:33:34.047Z,93508.50
2023-01-17T13:36:21.959Z,93510.38
2023-01-17T13:39:35.860Z,93515.34
2023-01-17T13:42:18.826Z,93515.09
2023-01-17T13:44:47.498Z,93515.59
2023-01-17T13:47:41.492Z,93514.03
2023-01-17T13:50:52.967Z,93517.69
2023-01-17T13:53:58.821Z,93524.25
2023-01-17T13:56:44.858Z,93513.25
2023-01-17T13:59:34.302Z,93514.56
2023-01-17T14:02:02.856Z,93513.78
2023-01-17T14:05:09.344Z,93520.31
2023-01-17T14:07:47.386Z,93517.72
2023-01-17T14:10:34.305Z,93523.41
2023-01-17T14:13:04.687Z,93529.19
2023-01-17T14:15:36.270Z,93522.94
2023-01-17T14:18:08.178Z,93532.06
2023-01-17T14:20:52.829Z,93528.44
2023-01-17T14:23:54.187Z,93532.34
2023-01-17T14:26:46.370Z,93523.44
2023-01-17T14:29:58.836Z,93527.38
2023-01-17T14:32:31.890Z,93521.91
2023-01-17T14:35:00.627Z,93526.06
2023-01-17T14:37:45.418Z,93518.22
2023-01-17T14:40:21.128Z,93512.44
2023-01-17T14:42:54.725Z,93518.19
2023-01-17T14:45:29.831Z,93515.31
2023-01-17T14:48:00.540Z,93522.59
2023-01-17T14:50:31.478Z,93518.94
2023-01-17T14:53:28.257Z,93513.47
2023-01-17T14:56:01.659Z,93513.19
2023-01-17T14:58:31.932Z,93509.00
2023-01-17T15:01:03.280Z,93521.00
2023-01-17T15:03:36.540Z,93523.88
2023-01-17T15:06:13.517Z,93515.78
2023-01-17T15:08:41.819Z,93512.13
2023-01-17T15:11:19.507Z,93511.88
2023-01-17T15:13:50.733Z,93527.53
2023-01-17T15:16:23.391Z,93527.84
2023-01-17T15:18:52.535Z,93517.63
2023-01-17T15:21:23.919Z,93521.84
2023-01-17T15:23:56.325Z,93516.88
2023-01-17T15:26:29.301Z,93511.66
2023-01-17T15:29:05.941Z,93509.03
2023-01-17T15:31:44.060Z,93507.22
2023-01-17T15:34:26.400Z,93511.13
2023-01-17T15:36:57.977Z,93501.97
2023-01-17T15:39:30.246Z,93511.38
2023-01-17T15:42:04.308Z,93506.38
2023-01-17T15:44:47.468Z,93509.75
2023-01-17T15:47:31.824Z,93512.88
2023-01-17T15:50:03.017Z,93510.78
2023-01-17T15:52:31.416Z,93509.41
2023-01-17T15:55:12.461Z,93508.13
2023-01-17T15:57:47.453Z,93514.06
2023-01-17T16:00:23.896Z,93509.41
2023-01-17T16:02:55.421Z,93516.50
2023-01-17T16:05:41.936Z,93514.13
2023-01-17T16:08:27.983Z,93513.09
2023-01-17T16:11:01.848Z,93515.44
2023-01-17T16:13:33.294Z,93518.88
2023-01-17T16:16:26.677Z,93519.09
2023-01-17T16:19:01.306Z,93525.88
2023-01-17T16:21:31.654Z,93522.44
2023-01-17T16:24:02.746Z,93527.88
2023-01-17T16:26:30.978Z,93521.91
2023-01-17T16:29:00.499Z,93525.31
2023-01-17T16:31:28.669Z,93519.59
2023-01-17T16:33:56.771Z,93519.53
2023-01-17T16:36:24.908Z,93522.16
2023-01-17T16:38:53.677Z,93524.78
2023-01-17T16:41:22.142Z,93519.34
2023-01-17T16:44:05.244Z,93515.44
2023-01-17T16:46:38.079Z,93513.28
2023-01-17T16:49:06.621Z,93513.50
2023-01-17T16:51:34.888Z,93525.25
2023-01-17T16:54:03.368Z,93517.41
2023-01-17T16:56:31.678Z,93528.91
2023-01-17T16:59:01.040Z,93534.09
2023-01-17T17:01:29.203Z,93527.34
2023-01-17T17:03:57.685Z,93529.41
2023-01-17T17:06:25.706Z,93532.03
2023-01-17T17:08:53.714Z,93534.97
2023-01-17T17:11:24.511Z,93530.31
2023-01-17T17:13:53.324Z,93529.03
2023-01-17T17:16:26.664Z,93535.53
2023-01-17T17:19:00.443Z,93543.34
2023-01-17T17:21:30.205Z,93544.09
2023-01-17T17:24:01.587Z,93543.41
2023-01-17T17:26:34.295Z,93549.13
2023-01-17T17:29:04.238Z,93548.56
2023-01-17T17:31:34.319Z,93557.75
2023-01-17T17:34:04.645Z,93560.88
2023-01-17T17:36:32.794Z,93578.06
2023-01-17T17:39:03.387Z,93579.38
2023-01-17T17:41:34.076Z,93577.53
2023-01-17T17:44:03.787Z,93580.38
2023-01-17T17:46:34.005Z,93584.28
2023-01-17T17:49:02.614Z,93577.94
2023-01-17T17:51:33.163Z,93576.69
2023-01-17T17:54:03.743Z,93581.56
2023-01-17T17:56:33.964Z,93592.66
2023-01-17T17:59:04.558Z,93589.84
2023-01-17T18:01:38.235Z,93594.00
2023-01-17T18:04:07.851Z,93604.13
2023-01-17T18:06:38.598Z,93607.50
2023-01-17T18:09:08.240Z,93608.22
2023-01-17T18:11:38.119Z,93607.63
2023-01-17T18:14:09.389Z,93610.00
2023-01-17T18:16:41.723Z,93608.94
2023-01-17T18:19:14.840Z,93609.91
2023-01-17T18:21:43.556Z,93612.72
2023-01-17T18:24:14.740Z,93611.63
2023-01-17T18:26:44.718Z,93613.88
2023-01-17T18:29:16.240Z,93617.06
2023-01-17T18:31:46.856Z,93612.59
2023-01-17T18:34:17.462Z,93618.00
2023-01-17T18:36:45.670Z,93612.44
2023-01-17T18:39:16.138Z,93622.88
2023-01-17T18:41:44.683Z,93624.66
2023-01-17T18:44:13.327Z,93619.47
2023-01-17T18:46:42.199Z,93627.06
2023-01-17T18:49:16.276Z,93620.22
2023-01-17T18:51:46.747Z,93621.25
2023-01-17T18:54:15.155Z,93613.25
2023-01-17T18:56:43.657Z,93622.63
2023-01-17T18:59:13.672Z,93613.06
2023-01-17T19:01:44.730Z,93622.69
2023-01-17T19:04:15.808Z,93625.47
2023-01-17T19:06:46.059Z,93621.78
2023-01-17T19:09:16.065Z,93616.66
2023-01-17T19:11:45.451Z,93615.84
2023-01-17T19:14:14.401Z,93623.19
2023-01-17T19:16:43.242Z,93615.84
2023-01-17T19:19:15.945Z,93623.16
2023-01-17T19:21:44.159Z,93619.16
2023-01-17T19:24:14.210Z,93622.44
2023-01-17T19:26:42.821Z,93626.03
2023-01-17T19:29:11.003Z,93625.00
2023-01-17T19:31:42.624Z,93622.91
2023-01-17T19:34:13.643Z,93633.34
2023-01-17T19:36:43.688Z,93634.09
2023-01-17T19:39:12.383Z,93636.44
2023-01-17T19:41:45.660Z,93636.53
2023-01-17T19:44:15.450Z,93631.75
2023-01-17T19:46:44.225Z,93631.28
2023-01-17T19:49:12.663Z,93631.25
2023-01-17T19:51:42.111Z,93632.91
2023-01-17T19:54:10.553Z,93637.28
2023-01-17T19:56:38.598Z,93627.81
2023-01-17T19:59:07.129Z,93625.78
2023-01-17T20:01:36.156Z,93621.25
2023-01-17T20:04:05.318Z,93623.75
2023-01-17T20:06:36.842Z,93622.50
2023-01-17T20:09:07.425Z,93612.94
2023-01-17T20:11:35.640Z,93616.63
2023-01-17T20:14:05.467Z,93619.06
2023-01-17T20:16:36.128Z,93612.84
2023-01-17T20:19:04.268Z,93622.25
2023-01-17T20:21:34.250Z,93614.09
2023-01-17T20:24:04.131Z,93619.22
2023-01-17T20:26:35.908Z,93616.09
2023-01-17T20:29:10.150Z,93616.56
2023-01-17T20:31:39.636Z,93619.84
2023-01-17T20:34:09.964Z,93622.19
2023-01-17T20:36:38.825Z,93622.88
2023-01-17T20:39:09.169Z,93628.91
2023-01-17T20:41:41.126Z,93622.19
2023-01-17T20:44:13.752Z,93615.66
2023-01-17T20:46:42.372Z,93615.53
2023-01-17T20:49:14.579Z,93614.53
2023-01-17T20:51:44.190Z,93615.00
2023-01-17T20:54:14.849Z,93612.78
2023-01-17T20:56:46.732Z,93606.34
2023-01-17T20:59:17.621Z,93608.16
2023-01-17T21:01:46.994Z,93617.41
2023-01-17T21:04:15.567Z,93618.94
2023-01-17T21:06:45.790Z,93610.09
2023-01-17T21:09:17.010Z,93624.47
2023-01-17T21:11:46.416Z,93619.06
2023-01-17T21:14:14.528Z,93616.72
2023-01-17T21:16:42.816Z,93621.13
2023-01-17T21:19:14.274Z,93626.56
2023-01-17T21:21:42.368Z,93625.03
2023-01-17T21:24:16.125Z,93620.81
2023-01-17T21:26:45.440Z,93624.06
2023-01-17T21:29:16.309Z,93622.41
2023-01-17T21:31:45.150Z,93621.13
2023-01-17T21:34:14.516Z,93631.06
2023-01-17T21:36:43.628Z,93630.13
2023-01-17T21:39:15.603Z,93630.97
2023-01-17T21:41:46.355Z,93628.56
2023-01-17T21:44:19.612Z,93622.75
2023-01-17T21:46:48.702Z,93628.84
2023-01-17T21:49:17.137Z,93629.38
2023-01-17T21:52:03.195Z,93627.28
2023-01-17T21:54:49.352Z,93620.38
2023-01-17T21:57:39.221Z,93630.03
2023-01-17T22:00:14.327Z,93637.22
2023-01-17T22:02:44.108Z,93637.66
2023-01-17T22:05:12.681Z,93639.56
2023-01-17T22:08:01.452Z,93637.44
2023-01-17T22:10:29.621Z,93629.34
2023-01-17T22:12:58.568Z,93630.81
2023-01-17T22:15:29.141Z,93635.59
2023-01-17T22:17:57.633Z,93630.50
2023-01-17T22:20:26.779Z,93629.84
2023-01-17T22:22:55.051Z,93638.75
2023-01-17T22:25:24.137Z,93640.03
2023-01-17T22:27:52.333Z,93633.97
2023-01-17T22:30:20.606Z,93631.03
2023-01-17T22:32:50.058Z,93638.03
2023-01-17T22:35:18.280Z,93627.94
2023-01-17T22:37:47.263Z,93638.59
2023-01-17T22:40:17.360Z,93631.25
2023-01-17T22:42:45.439Z,93637.38
2023-01-17T22:45:14.241Z,93630.91
2023-01-17T22:47:43.379Z,93630.56
2023-01-17T22:50:13.537Z,93629.06
2023-01-17T22:52:41.946Z,93634.25
2023-01-17T22:55:12.090Z,93629.94
2023-01-17T22:57:40.164Z,93632.75
2023-01-17T23:00:14.447Z,93623.06
2023-01-17T23:02:43.560Z,93631.53
2023-01-17T23:05:13.051Z,93632.75
2023-01-17T23:07:44.245Z,93623.59
2023-01-17T23:10:35.318Z,93633.22
2023-01-17T23:13:03.376Z,93626.44
2023-01-17T23:15:48.881Z,93633.34
2023-01-17T23:18:34.626Z,93629.97
2023-01-17T23:21:03.992Z,93628.50
2023-01-17T23:23:33.215Z,93628.81
2023-01-17T23:26:02.128Z,93623.59
2023-01-17T23:28:29.228Z,93620.75
2023-01-17T23:31:04.832Z,93616.72
2023-01-17T23:33:33.009Z,93615.53
2023-01-17T23:36:01.455Z,93622.81
2023-01-17T23:38:30.986Z,93622.75
2023-01-17T23:41:20.191Z,93620.41
2023-01-17T23:43:52.564Z,93627.16
2023-01-17T23:46:20.724Z,93628.91
2023-01-17T23:48:49.328Z,93629.16
2023-01-17T23:51:17.434Z,93630.06
2023-01-17T23:53:46.828Z,93634.91
2023-01-17T23:56:18.039Z,93627.97
2023-01-17T23:58:46.166Z,93627.22
